Time;durP1;ratioP1;P1;durP2;ratioP2;P2;SDS_P1;SDS_P2;PMS_P1;PMS_P2;Temp;Humidity;BMP_temperature;BMP_pressure;BME280_temperature;BME280_humidity;BME280_pressure;Samples;Min_cycle;Max_cycle;Signal;HPM_P1;HPM_P2
2022/01/31 00:00:56;;;;;;;20.83;3.97;;;;;;;5.42;65.26;99307.56;5092594;28;20250;-74
2022/01/31 00:03:24;;;;;;;14.03;3.80;;;;;;;5.44;64.97;99302.13;5092291;28;20601;-73
2022/01/31 00:05:51;;;;;;;11.63;3.70;;;;;;;5.40;64.31;99283.19;5092405;28;20284;-73
2022/01/31 00:08:23;;;;;;;12.83;4.13;;;;;;;5.56;63.16;99293.69;5091971;28;20278;-73
2022/01/31 00:10:51;;;;;;;22.17;4.47;;;;;;;5.58;63.56;99291.72;5092350;28;20183;-71
2022/01/31 00:13:21;;;;;;;7.67;4.07;;;;;;;5.60;63.83;99288.91;5091972;28;20244;-71
2022/01/31 00:15:54;;;;;;;8.90;3.93;;;;;;;5.52;64.60;99288.94;5091711;28;20185;-72
2022/01/31 00:18:20;;;;;;;15.00;4.37;;;;;;;5.32;66.10;99280.56;5092541;28;20191;-72
2022/01/31 00:20:47;;;;;;;9.90;4.33;;;;;;;5.26;66.62;99281.25;5094635;28;20252;-73
2022/01/31 00:23:14;;;;;;;8.23;3.50;;;;;;;5.12;66.46;99279.31;5095853;28;20192;-72
2022/01/31 00:25:42;;;;;;;12.00;3.70;;;;;;;5.05;66.47;99280.97;5095491;28;20197;-72
2022/01/31 00:28:09;;;;;;;16.07;3.60;;;;;;;5.05;65.99;99294.13;5096477;28;20280;-73
2022/01/31 00:30:36;;;;;;;7.43;3.50;;;;;;;5.08;65.62;99274.53;5095431;28;20193;-72
2022/01/31 00:33:03;;;;;;;10.00;4.30;;;;;;;5.12;64.76;99273.22;5095894;28;20196;-72
2022/01/31 00:35:29;;;;;;;12.10;4.10;;;;;;;5.23;64.12;99281.56;5095226;28;20285;-72
2022/01/31 00:37:56;;;;;;;10.77;3.17;;;;;;;5.18;64.26;99289.16;5095584;28;20248;-71
2022/01/31 00:40:23;;;;;;;14.77;4.60;;;;;;;5.25;63.88;99282.25;5095179;28;20728;-71
2022/01/31 00:42:51;;;;;;;17.07;4.20;;;;;;;5.34;63.53;99289.13;5095991;28;20191;-71
2022/01/31 00:45:23;;;;;;;10.97;4.10;;;;;;;5.29;63.71;99280.94;5095151;28;20188;-72
2022/01/31 00:48:00;;;;;;;14.00;4.17;;;;;;;5.36;62.70;99287.13;5095214;28;20683;-71
2022/01/31 00:50:27;;;;;;;16.43;4.00;;;;;;;5.33;62.87;99290.13;5095511;28;20191;-71
2022/01/31 00:52:54;;;;;;;12.53;3.97;;;;;;;5.12;63.57;99281.09;5096063;28;20241;-72
2022/01/31 00:55:21;;;;;;;12.30;3.77;;;;;;;5.13;63.69;99282.75;5095232;28;20187;-72
2022/01/31 00:57:48;;;;;;;17.97;4.27;;;;;;;5.01;63.39;99244.59;5095991;28;20196;-71
2022/01/31 01:00:17;;;;;;;9.33;4.10;;;;;;;5.07;63.51;99276.34;5095150;28;20248;-71
2022/01/31 01:02:44;;;;;;;15.30;3.40;;;;;;;5.06;63.24;99272.06;5095396;28;20324;-73
2022/01/31 01:05:11;;;;;;;17.23;3.83;;;;;;;5.05;63.69;99265.16;5094632;28;20218;-73
2022/01/31 01:07:38;;;;;;;17.67;5.17;;;;;;;4.99;64.05;99263.19;5095436;28;20281;-71
2022/01/31 01:10:05;;;;;;;14.47;4.83;;;;;;;4.99;63.69;99257.91;5094638;28;20244;-73
2022/01/31 01:12:32;;;;;;;9.10;3.80;;;;;;;4.92;63.69;99267.50;5095116;28;20187;-71
2022/01/31 01:14:59;;;;;;;4.37;3.60;;;;;;;4.86;63.81;99268.13;5094526;28;20195;-71
2022/01/31 01:17:27;;;;;;;12.07;3.73;;;;;;;4.89;63.58;99267.81;5094477;28;20199;-72
2022/01/31 01:19:54;;;;;;;9.03;3.20;;;;;;;4.90;62.49;99269.44;5094714;28;20237;-71
2022/01/31 01:22:20;;;;;;;15.40;3.23;;;;;;;4.94;62.12;99275.19;5094687;28;20196;-72
2022/01/31 01:24:48;;;;;;;13.23;3.13;;;;;;;4.99;61.34;99268.44;5094320;28;20252;-71
2022/01/31 01:27:18;;;;;;;11.23;3.40;;;;;;;4.98;60.37;99272.06;5094543;28;20245;-72
2022/01/31 01:29:45;;;;;;;13.37;3.30;;;;;;;5.02;60.55;99275.19;5095337;28;20606;-72
2022/01/31 01:32:12;;;;;;;11.73;4.00;;;;;;;5.00;60.47;99274.53;5093989;28;20283;-72
2022/01/31 01:34:40;;;;;;;9.67;3.00;;;;;;;5.02;59.68;99278.66;5094582;28;20231;-71
2022/01/31 01:37:07;;;;;;;9.73;3.03;;;;;;;5.06;59.00;99279.97;5094148;28;20731;-71
2022/01/31 01:39:34;;;;;;;10.73;3.73;;;;;;;5.11;58.36;99275.00;5094059;28;20204;-71
2022/01/31 01:42:01;;;;;;;13.33;3.83;;;;;;;5.16;58.22;99285.84;5093952;28;20733;-70
2022/01/31 01:44:45;;;;;;;15.40;3.40;;;;;;;5.16;57.81;99280.59;5093934;28;20187;-70
2022/01/31 01:47:12;;;;;;;7.03;2.70;;;;;;;5.14;57.20;99276.50;5095050;28;20240;-72
2022/01/31 01:49:40;;;;;;;10.27;3.97;;;;;;;5.22;56.96;99277.31;5094081;28;20251;-72
2022/01/31 01:52:07;;;;;;;8.33;3.03;;;;;;;5.15;56.59;99278.16;5094918;28;20187;-71
2022/01/31 01:54:34;;;;;;;16.57;3.57;;;;;;;5.19;56.15;99268.94;5093714;28;20639;-72
2022/01/31 01:57:02;;;;;;;8.80;2.80;;;;;;;5.14;55.83;99266.78;5093735;28;20669;-71
2022/01/31 01:59:29;;;;;;;15.03;3.20;;;;;;;5.15;55.78;99272.88;5094500;28;20195;-71
2022/01/31 02:01:56;;;;;;;5.83;2.83;;;;;;;5.22;55.89;99285.22;5093591;28;20719;-71
2022/01/31 02:04:23;;;;;;;12.80;4.10;;;;;;;5.28;55.23;99283.72;5093888;28;20628;-71
2022/01/31 02:06:51;;;;;;;16.73;3.40;;;;;;;5.28;54.79;99289.00;5094331;28;20187;-71
2022/01/31 02:09:22;;;;;;;9.67;2.90;;;;;;;5.32;54.71;99291.09;5093417;28;20219;-71
2022/01/31 02:11:49;;;;;;;8.57;3.47;;;;;;;5.32;54.36;99296.38;5093762;28;20183;-71
2022/01/31 02:14:15;;;;;;;10.23;3.00;;;;;;;5.30;54.31;99292.25;5094270;28;20188;-70
2022/01/31 02:16:42;;;;;;;4.43;2.57;;;;;;;5.27;54.37;99301.31;5094451;28;20192;-70
2022/01/31 02:19:14;;;;;;;9.97;3.30;;;;;;;5.40;53.37;99312.16;5093317;28;20200;-70
2022/01/31 02:21:42;;;;;;;14.93;2.80;;;;;;;5.30;53.67;99319.44;5093869;28;20190;-70
2022/01/31 02:24:09;;;;;;;6.07;3.13;;;;;;;5.34;53.35;99309.38;5093199;28;20659;-70
2022/01/31 02:26:36;;;;;;;7.50;2.93;;;;;;;5.31;52.89;99305.25;5094173;28;20264;-70
2022/01/31 02:29:02;;;;;;;10.70;2.33;;;;;;;5.36;52.11;99312.66;5093385;28;20214;-70
2022/01/31 02:31:29;;;;;;;7.53;2.73;;;;;;;5.35;51.95;99306.56;5093355;28;20245;-71
2022/01/31 02:33:56;;;;;;;5.53;2.70;;;;;;;5.37;52.06;99303.78;5093190;28;20284;-71
2022/01/31 02:36:23;;;;;;;8.67;2.77;;;;;;;5.35;52.35;99297.84;5093638;28;20183;-71
2022/01/31 02:38:51;;;;;;;7.30;2.87;;;;;;;5.33;52.32;99298.03;5092935;28;20195;-71
2022/01/31 02:41:17;;;;;;;10.33;2.80;;;;;;;5.28;53.00;99294.25;5093448;28;20191;-71
2022/01/31 02:43:48;;;;;;;7.03;2.80;;;;;;;5.21;53.22;99298.53;5092936;28;20274;-71
2022/01/31 02:46:16;;;;;;;6.80;3.33;;;;;;;5.23;53.05;99294.75;5093365;28;20220;-72
2022/01/31 02:48:43;;;;;;;9.43;2.80;;;;;;;5.13;53.58;99296.75;5092633;28;20216;-71
2022/01/31 02:51:10;;;;;;;9.30;3.00;;;;;;;5.10;54.21;99293.59;5093014;28;20192;-71
2022/01/31 02:53:40;;;;;;;16.80;4.40;;;;;;;4.99;55.15;99288.69;5092662;28;20567;-71
2022/01/31 02:56:09;;;;;;;12.07;3.47;;;;;;;5.02;54.98;99289.19;5092868;28;20533;-71
2022/01/31 02:58:35;;;;;;;12.50;3.00;;;;;;;5.11;55.07;99293.44;5092824;28;20201;-71
2022/01/31 03:01:02;;;;;;;16.10;3.40;;;;;;;5.10;55.14;99283.91;5092792;28;20248;-71
2022/01/31 03:03:29;;;;;;;7.17;2.63;;;;;;;5.01;55.75;99292.81;5093311;28;20268;-70
2022/01/31 03:05:56;;;;;;;13.73;3.53;;;;;;;5.17;54.86;99298.06;5092988;28;20192;-71
2022/01/31 03:08:23;;;;;;;4.80;3.20;;;;;;;5.16;54.61;99309.56;5093224;28;20586;-71
2022/01/31 03:10:50;;;;;;;12.27;2.93;;;;;;;5.22;54.58;99311.53;5092697;28;20574;-71
2022/01/31 03:13:18;;;;;;;6.63;3.07;;;;;;;5.18;54.53;99309.38;5092511;28;20220;-70
2022/01/31 03:15:45;;;;;;;10.97;2.77;;;;;;;5.22;54.23;99322.06;5092290;28;20249;-70
2022/01/31 03:18:12;;;;;;;9.40;3.13;;;;;;;5.18;53.35;99314.66;5092281;28;20196;-71
2022/01/31 03:20:39;;;;;;;7.30;2.60;;;;;;;5.22;53.74;99324.69;5092217;28;20191;-71
2022/01/31 03:23:05;;;;;;;5.57;2.77;;;;;;;5.10;53.45;99315.50;5092472;28;20187;-72
2022/01/31 03:25:33;;;;;;;6.30;2.40;;;;;;;5.07;53.93;99326.34;5092479;28;20191;-73
2022/01/31 03:28:00;;;;;;;10.53;2.70;;;;;;;5.05;54.07;99325.69;5092752;28;20191;-71
2022/01/31 03:30:29;;;;;;;7.67;2.63;;;;;;;4.97;54.46;99323.06;5092399;28;20267;-70
2022/01/31 03:32:55;;;;;;;5.13;2.63;;;;;;;4.92;54.55;99312.22;5092391;28;20192;-71
2022/01/31 03:35:23;;;;;;;9.90;3.30;;;;;;;4.90;55.21;99322.06;5092916;28;20303;-71
2022/01/31 03:37:51;;;;;;;7.33;2.97;;;;;;;4.79;57.09;99311.88;5092380;28;20195;-72
2022/01/31 03:40:19;;;;;;;3.27;2.73;;;;;;;4.78;58.23;99307.59;5092265;28;20198;-69
2022/01/31 03:42:46;;;;;;;6.97;3.00;;;;;;;4.77;59.76;99307.75;5091979;28;20228;-70
2022/01/31 03:45:13;;;;;;;3.73;2.80;;;;;;;4.77;59.81;99311.22;5092324;28;20243;-71
2022/01/31 03:47:45;;;;;;;6.30;2.57;;;;;;;4.81;59.96;99322.22;5092212;28;20191;-71
2022/01/31 03:50:14;;;;;;;19.73;3.53;;;;;;;4.77;60.18;99321.75;5093032;28;20233;-71
2022/01/31 03:52:42;;;;;;;7.03;3.13;;;;;;;4.81;60.28;99338.84;5092194;28;20263;-73
2022/01/31 03:55:12;;;;;;;3.07;2.77;;;;;;;4.75;60.65;99342.13;5095411;28;20202;-72
2022/01/31 03:57:39;;;;;;;11.37;3.27;;;;;;;4.87;59.89;99350.53;5096310;28;20229;-74
2022/01/31 04:00:09;;;;;;;4.63;2.87;;;;;;;4.90;59.87;99353.66;5095888;28;20195;-74
2022/01/31 04:02:35;;;;;;;7.47;2.93;;;;;;;4.90;59.47;99358.91;5096677;28;20245;-72
2022/01/31 04:05:04;;;;;;;6.27;2.63;;;;;;;4.99;59.34;99355.28;5096098;28;20195;-71
2022/01/31 04:07:31;;;;;;;4.10;3.40;;;;;;;4.82;59.68;99364.16;5095837;28;20207;-71
2022/01/31 04:09:57;;;;;;;7.53;4.03;;;;;;;4.86;59.74;99364.69;5095625;28;20279;-71
2022/01/31 04:12:24;;;;;;;5.73;3.40;;;;;;;4.77;60.18;99366.47;5096322;28;20260;-71
2022/01/31 04:14:51;;;;;;;7.17;3.93;;;;;;;4.80;59.61;99379.31;5096076;28;20187;-71
2022/01/31 04:17:19;;;;;;;5.43;3.30;;;;;;;4.71;59.70;99364.47;5095944;28;20191;-71
2022/01/31 04:19:46;;;;;;;7.47;3.27;;;;;;;4.80;59.71;99363.53;5095912;28;20196;-71
2022/01/31 04:22:17;;;;;;;9.53;3.53;;;;;;;4.84;58.95;99370.09;5095882;28;20226;-71
2022/01/31 04:24:47;;;;;;;13.70;4.00;;;;;;;4.78;59.78;99376.00;5095966;28;20234;-72
2022/01/31 04:27:18;;;;;;;9.43;3.93;;;;;;;4.78;59.40;99370.75;5095820;28;20188;-72
2022/01/31 04:29:46;;;;;;;4.50;3.40;;;;;;;4.70;59.39;99368.09;5095458;28;20778;-74
2022/01/31 04:32:13;;;;;;;9.13;3.77;;;;;;;4.77;59.10;99373.53;5095284;28;20576;-71
2022/01/31 04:34:40;;;;;;;17.93;7.60;;;;;;;4.74;59.06;99382.56;5095674;28;20223;-71
2022/01/31 04:37:07;;;;;;;17.63;4.53;;;;;;;4.72;59.35;99371.41;5095877;28;20208;-71
2022/01/31 04:39:35;;;;;;;4.63;2.93;;;;;;;4.79;58.73;99376.84;5096049;28;20697;-71
2022/01/31 04:42:02;;;;;;;14.20;3.50;;;;;;;4.72;59.10;99376.66;5095208;28;20192;-71
2022/01/31 04:44:29;;;;;;;7.47;2.70;;;;;;;4.71;58.69;99374.19;5095122;28;20191;-71
2022/01/31 04:46:55;;;;;;;7.47;3.30;;;;;;;4.71;58.97;99379.44;5095431;28;20195;-72
2022/01/31 04:49:23;;;;;;;5.53;3.23;;;;;;;4.60;59.53;99374.50;5095245;28;20280;-70
2022/01/31 04:51:51;;;;;;;9.37;3.10;;;;;;;4.62;59.14;99375.16;5094988;28;20620;-70
2022/01/31 04:54:18;;;;;;;4.50;3.10;;;;;;;4.59;59.27;99376.31;5095284;28;20191;-70
2022/01/31 04:56:47;;;;;;;9.93;3.47;;;;;;;4.55;59.36;99379.41;5094883;28;20199;-71
2022/01/31 04:59:13;;;;;;;7.13;2.67;;;;;;;4.64;59.40;99381.91;5095143;28;20234;-71
2022/01/31 05:01:42;;;;;;;12.50;3.47;;;;;;;4.50;59.59;99382.50;5095078;28;20274;-71
2022/01/31 05:04:09;;;;;;;8.37;3.30;;;;;;;4.54;59.39;99386.47;5094971;28;20663;-72
2022/01/31 05:06:38;;;;;;;5.70;3.70;;;;;;;4.42;59.87;99393.00;5094712;28;20282;-72
2022/01/31 05:09:05;;;;;;;8.33;3.83;;;;;;;4.49;59.63;99396.66;5094823;28;20227;-72
2022/01/31 05:11:32;;;;;;;5.73;3.43;;;;;;;4.58;59.57;99405.41;5094850;28;20218;-72
2022/01/31 05:14:01;;;;;;;6.30;3.63;;;;;;;4.52;59.68;99400.75;5094509;28;20192;-72
2022/01/31 05:16:28;;;;;;;8.13;3.43;;;;;;;4.43;59.68;99386.78;5095472;28;20191;-72
2022/01/31 05:18:54;;;;;;;7.20;3.00;;;;;;;4.43;59.99;99402.56;5095412;28;20191;-72
2022/01/31 05:21:21;;;;;;;9.00;3.40;;;;;;;4.46;59.32;99412.75;5094556;28;20240;-72
2022/01/31 05:23:49;;;;;;;8.60;3.10;;;;;;;4.50;60.03;99411.44;5094563;28;20191;-72
2022/01/31 05:26:16;;;;;;;4.80;3.40;;;;;;;4.46;59.58;99409.31;5094550;28;20199;-72
2022/01/31 05:28:43;;;;;;;6.77;3.37;;;;;;;4.51;59.47;99425.44;5095098;28;20245;-72
2022/01/31 05:31:11;;;;;;;6.93;3.67;;;;;;;4.50;58.84;99416.69;5094068;28;20252;-72
2022/01/31 05:33:37;;;;;;;8.80;3.80;;;;;;;4.50;58.83;99416.69;5094125;28;20251;-72
2022/01/31 05:36:04;;;;;;;5.00;3.40;;;;;;;4.55;58.88;99427.59;5094992;28;20583;-73
2022/01/31 05:38:34;;;;;;;5.63;4.07;;;;;;;4.43;59.69;99423.59;5093859;28;20272;-73
2022/01/31 05:41:04;;;;;;;14.87;4.07;;;;;;;4.46;58.89;99428.53;5094129;28;20195;-72
2022/01/31 05:43:31;;;;;;;7.87;3.90;;;;;;;4.51;58.54;99422.78;5094624;28;20199;-71
2022/01/31 05:45:58;;;;;;;12.40;4.80;;;;;;;4.51;58.99;99442.03;5094885;28;20624;-71
2022/01/31 05:48:26;;;;;;;12.63;3.77;;;;;;;4.46;58.60;99435.59;5094240;28;20236;-70
2022/01/31 05:50:54;;;;;;;9.87;3.73;;;;;;;4.57;57.87;99436.13;5093625;28;20219;-72
2022/01/31 05:53:21;;;;;;;3.80;3.47;;;;;;;4.58;57.53;99437.75;5094686;28;20260;-69
2022/01/31 05:55:48;;;;;;;3.60;3.30;;;;;;;4.55;57.91;99453.06;5093740;28;20618;-69
2022/01/31 05:58:15;;;;;;;8.33;3.67;;;;;;;4.61;57.66;99442.72;5093901;28;20191;-68
2022/01/31 06:00:42;;;;;;;8.43;4.17;;;;;;;4.63;57.70;99446.03;5093795;28;20249;-68
2022/01/31 06:03:08;;;;;;;9.27;3.63;;;;;;;4.70;57.58;99447.00;5093483;28;20739;-69
2022/01/31 06:05:36;;;;;;;9.80;5.33;;;;;;;4.75;57.10;99460.50;5093913;28;20199;-68
2022/01/31 06:08:03;;;;;;;7.90;4.73;;;;;;;4.79;57.22;99453.94;5094492;28;20199;-68
2022/01/31 06:10:31;;;;;;;6.30;3.80;;;;;;;4.97;56.66;99454.66;5093149;28;20280;-70
2022/01/31 06:12:58;;;;;;;10.27;5.47;;;;;;;5.05;55.77;99457.31;5092355;28;20201;-69
2022/01/31 06:15:25;;;;;;;8.97;5.57;;;;;;;5.25;55.40;99455.19;5093154;28;20196;-69
2022/01/31 06:17:52;;;;;;;13.07;3.77;;;;;;;5.39;54.29;99455.38;5092702;28;20203;-70
2022/01/31 06:20:18;;;;;;;11.33;4.40;;;;;;;5.58;53.31;99455.03;5093126;28;20195;-68
2022/01/31 06:22:51;;;;;;;6.37;3.47;;;;;;;5.69;52.89;99452.06;5093388;28;20196;-69
2022/01/31 06:25:18;;;;;;;8.63;4.10;;;;;;;5.97;51.57;99464.91;5092909;28;20195;-68
2022/01/31 06:27:46;;;;;;;8.37;3.20;;;;;;;6.10;50.66;99454.66;5093442;28;20268;-69
2022/01/31 06:30:13;;;;;;;12.57;3.63;;;;;;;6.34;49.33;99450.16;5092921;28;20221;-64
2022/01/31 06:32:39;;;;;;;10.77;4.10;;;;;;;6.50;48.60;99460.66;5089780;28;20191;-62
2022/01/31 06:35:08;;;;;;;5.70;3.07;;;;;;;6.60;48.83;99466.53;5093000;28;20238;-64
2022/01/31 06:37:35;;;;;;;11.77;3.00;;;;;;;6.92;48.13;99469.03;5092994;28;20269;-64
2022/01/31 06:40:04;;;;;;;6.77;3.40;;;;;;;7.03;47.19;99471.28;5093039;28;20195;-63
2022/01/31 06:42:31;;;;;;;15.77;4.15;;;;;;;7.11;46.94;99462.47;5091978;28;20498;-64
2022/01/31 06:44:58;;;;;;;10.97;3.53;;;;;;;7.18;46.42;99468.72;5092591;28;20198;-65
2022/01/31 06:47:25;;;;;;;4.87;2.70;;;;;;;7.35;45.66;99486.09;5092547;28;20737;-65
2022/01/31 06:49:52;;;;;;;11.77;3.87;;;;;;;7.60;45.65;99492.84;5092655;28;20226;-64
2022/01/31 06:52:19;;;;;;;8.87;3.47;;;;;;;7.70;44.87;99491.59;5093116;28;20196;-63
2022/01/31 06:54:49;;;;;;;10.90;4.37;;;;;;;7.64;44.73;99502.06;5093071;28;20264;-63
2022/01/31 06:57:18;;;;;;;12.10;4.37;;;;;;;7.67;44.34;99477.94;5093017;28;20272;-64
2022/01/31 06:59:45;;;;;;;11.37;4.40;;;;;;;7.91;43.09;99493.56;5089086;28;20199;-64
2022/01/31 07:02:11;;;;;;;11.87;4.30;;;;;;;7.93;42.54;99470.41;5091981;28;20248;-65
2022/01/31 07:04:38;;;;;;;12.03;4.40;;;;;;;8.10;42.25;99503.63;5091973;28;20548;-63
2022/01/31 07:07:05;;;;;;;6.63;4.30;;;;;;;8.23;42.80;99490.63;5092064;28;20191;-65
2022/01/31 07:09:33;;;;;;;8.07;3.30;;;;;;;8.38;42.55;99492.28;5092135;28;20756;-65
2022/01/31 07:12:00;;;;;;;7.10;3.33;;;;;;;8.55;41.83;99487.66;5092164;28;20196;-66
2022/01/31 07:14:31;;;;;;;9.33;3.93;;;;;;;8.74;40.65;99482.59;5092466;28;20199;-66
2022/01/31 07:16:59;;;;;;;9.30;3.97;;;;;;;8.78;41.03;99488.38;5090675;28;20245;-65
2022/01/31 07:19:29;;;;;;;9.03;4.00;;;;;;;8.78;41.08;99480.44;5092072;28;20675;-65
2022/01/31 07:21:56;;;;;;;15.40;5.80;;;;;;;8.98;40.90;99469.03;5090328;28;20201;-66
2022/01/31 07:24:25;;;;;;;19.87;4.90;;;;;;;9.18;41.00;99474.56;5090201;28;20248;-63
2022/01/31 07:26:53;;;;;;;9.47;4.30;;;;;;;9.20;40.40;99457.47;5091989;28;20191;-64
2022/01/31 07:29:21;;;;;;;8.17;4.20;;;;;;;9.37;40.12;99450.09;5091624;28;20187;-65
2022/01/31 07:31:50;;;;;;;8.87;5.97;;;;;;;9.44;40.03;99441.19;5091582;28;20690;-64
2022/01/31 07:34:18;;;;;;;9.60;3.60;;;;;;;9.37;39.20;99442.16;5091335;28;20230;-64
2022/01/31 07:36:46;;;;;;;7.40;4.07;;;;;;;9.49;39.49;99443.28;5092385;28;20278;-65
2022/01/31 07:39:13;;;;;;;9.13;4.90;;;;;;;9.34;39.65;99442.50;5091833;28;20195;-66
2022/01/31 07:41:40;;;;;;;6.67;4.30;;;;;;;9.32;39.09;99437.41;5091262;28;20242;-64
2022/01/31 07:44:07;;;;;;;11.40;4.90;;;;;;;9.41;38.60;99427.50;5091345;28;20248;-64
2022/01/31 07:46:34;;;;;;;10.20;3.23;;;;;;;9.31;39.00;99437.63;5091718;28;20547;-63
2022/01/31 07:49:02;;;;;;;12.33;3.80;;;;;;;9.41;39.21;99432.81;5091646;28;20256;-63
2022/01/31 07:51:29;;;;;;;16.30;3.27;;;;;;;9.98;38.28;99431.66;5091658;28;20277;-63
2022/01/31 07:53:56;;;;;;;12.03;3.47;;;;;;;10.00;37.93;99436.75;5091233;28;20245;-61
2022/01/31 07:56:23;;;;;;;20.87;4.20;;;;;;;9.58;37.88;99432.34;5091730;28;20268;-62
2022/01/31 07:58:49;;;;;;;6.53;3.73;;;;;;;9.37;38.50;99423.59;5091794;28;20187;-62
2022/01/31 08:01:16;;;;;;;9.97;4.10;;;;;;;9.65;37.54;99421.81;5091358;28;20191;-62
2022/01/31 08:03:44;;;;;;;7.27;4.13;;;;;;;10.09;37.99;99412.56;5091400;28;20195;-61
2022/01/31 08:06:13;;;;;;;10.00;4.90;;;;;;;10.22;36.87;99406.53;5088965;28;20194;-63
2022/01/31 08:08:41;;;;;;;9.30;4.53;;;;;;;10.53;36.30;99398.91;5090739;28;20195;-61
2022/01/31 08:11:08;;;;;;;7.43;3.70;;;;;;;10.58;37.74;99389.31;5091221;28;20671;-60
2022/01/31 08:13:36;;;;;;;10.07;3.27;;;;;;;10.62;35.81;99390.56;5089709;28;20250;-60
2022/01/31 08:16:09;;;;;;;7.63;2.70;;;;;;;10.81;35.25;99389.81;5087649;28;20261;-59
2022/01/31 08:18:38;;;;;;;31.50;4.10;;;;;;;11.11;33.47;99371.69;5089165;28;20597;-62
2022/01/31 08:21:04;;;;;;;17.57;3.40;;;;;;;11.48;32.08;99383.59;5091539;28;20232;-63
2022/01/31 08:23:34;;;;;;;24.77;4.28;;;;;;;11.21;32.81;99380.09;5090619;28;20489;-61
2022/01/31 08:26:01;;;;;;;5.70;2.40;;;;;;;10.91;33.75;99392.09;5090972;28;20190;-61
2022/01/31 08:28:36;;;;;;;9.47;2.33;;;;;;;11.19;33.13;99399.94;5091966;28;20200;-64
2022/01/31 08:31:11;;;;;;;65.50;5.53;;;;;;;11.08;32.80;99415.44;5091540;28;20212;-62
2022/01/31 08:33:42;;;;;;;7.00;2.93;;;;;;;11.33;32.87;99423.69;5091113;28;20180;-61
2022/01/31 08:36:09;;;;;;;15.90;3.30;;;;;;;11.36;33.15;99417.13;5091625;28;20208;-60
2022/01/31 08:38:41;;;;;;;6.17;3.30;;;;;;;11.69;32.62;99418.00;5091474;28;20192;-62
2022/01/31 08:41:09;;;;;;;10.45;3.05;;;;;;;11.70;35.23;99409.00;5092822;28;20451;-61
2022/01/31 08:43:37;;;;;;;7.73;2.50;;;;;;;12.25;40.10;99390.69;5095698;28;20251;-61
2022/01/31 08:46:04;;;;;;;5.07;2.77;;;;;;;11.76;32.45;99416.97;5094746;28;20730;-61
2022/01/31 08:48:31;;;;;;;5.50;2.70;;;;;;;12.24;34.20;99405.03;5094835;28;20187;-61
2022/01/31 08:50:59;;;;;;;8.93;3.20;;;;;;;12.37;31.98;99406.84;5093259;28;20249;-61
2022/01/31 08:53:26;;;;;;;5.97;3.00;;;;;;;12.17;32.45;99390.91;5095239;28;20187;-61
2022/01/31 08:55:56;;;;;;;7.50;2.63;;;;;;;12.05;36.94;99381.91;5094726;28;20722;-61
2022/01/31 08:58:23;;;;;;;5.37;2.33;;;;;;;12.00;31.46;99396.91;5094838;28;20183;-62
2022/01/31 09:00:58;;;;;;;19.90;3.07;;;;;;;11.84;31.08;99384.81;5094734;28;20261;-62
2022/01/31 09:03:41;;;;;;;3.63;2.87;;;;;;;11.82;30.41;99386.06;5095534;28;20238;-61
2022/01/31 09:06:10;;;;;;;40.77;4.03;;;;;;;11.58;30.76;99374.19;5094148;28;20196;-62
2022/01/31 09:08:37;;;;;;;34.73;4.07;;;;;;;11.37;30.88;99370.91;5093874;28;20758;-61
2022/01/31 09:11:06;;;;;;;5.23;2.73;;;;;;;11.14;31.40;99376.59;5094053;28;20225;-62
2022/01/31 09:13:34;;;;;;;12.33;3.13;;;;;;;11.56;31.06;99372.75;5094703;28;20265;-62
2022/01/31 09:16:01;;;;;;;9.80;3.07;;;;;;;11.96;30.62;99382.38;5094593;28;20217;-62
2022/01/31 09:18:28;;;;;;;7.80;3.00;;;;;;;11.91;30.46;99374.16;5094357;28;20727;-62
2022/01/31 09:20:55;;;;;;;26.87;4.27;;;;;;;11.50;30.69;99377.03;5094176;28;20289;-62
2022/01/31 09:23:22;;;;;;;8.67;2.53;;;;;;;11.53;30.66;99368.66;5094535;28;20198;-62
2022/01/31 09:25:48;;;;;;;5.33;2.80;;;;;;;11.56;31.06;99365.56;5094311;28;20567;-61
2022/01/31 09:28:17;;;;;;;5.90;2.93;;;;;;;11.75;30.56;99354.13;5094087;28;20251;-62
2022/01/31 09:30:46;;;;;;;22.67;3.37;;;;;;;11.66;29.95;99352.72;5093775;28;20689;-62
2022/01/31 09:33:13;;;;;;;9.97;2.90;;;;;;;11.84;29.87;99352.88;5093896;28;20194;-62
2022/01/31 09:35:42;;;;;;;5.77;3.30;;;;;;;12.15;29.29;99344.22;5090419;28;20287;-62
2022/01/31 09:38:11;;;;;;;34.63;5.77;;;;;;;12.47;29.30;99333.47;5094279;28;20276;-62
2022/01/31 09:40:38;;;;;;;8.37;4.40;;;;;;;12.56;29.68;99321.53;5093764;28;20207;-62
2022/01/31 09:43:24;;;;;;;13.57;3.87;;;;;;;12.53;28.75;99321.94;5093827;28;20657;-62
2022/01/31 09:46:01;;;;;;;6.37;3.87;;;;;;;12.71;28.81;99318.56;5093961;28;20191;-62
2022/01/31 09:48:33;;;;;;;4.17;3.50;;;;;;;12.61;28.73;99295.06;5094306;28;20192;-63
2022/01/31 09:51:01;;;;;;;6.37;2.47;;;;;;;12.56;28.69;99286.88;5094175;28;20211;-63
2022/01/31 09:53:28;;;;;;;20.77;4.30;;;;;;;12.36;28.61;99278.19;5093880;28;20198;-63
2022/01/31 09:55:55;;;;;;;21.40;3.97;;;;;;;12.24;29.06;99258.56;5091243;28;20201;-63
2022/01/31 09:58:24;;;;;;;5.67;3.07;;;;;;;12.54;28.54;99262.28;5084863;28;20235;-63
2022/01/31 10:01:05;;;;;;;8.97;2.73;;;;;;;12.31;28.61;99267.34;5093678;28;20205;-62
2022/01/31 10:03:32;;;;;;;3.17;2.30;;;;;;;12.35;28.59;99271.22;5093886;28;20187;-62
2022/01/31 10:05:59;;;;;;;7.73;2.83;;;;;;;12.22;29.07;99265.13;5093722;28;20255;-63
2022/01/31 10:08:30;;;;;;;5.70;2.77;;;;;;;12.31;28.76;99254.03;5093227;28;20198;-63
2022/01/31 10:11:01;;;;;;;6.67;2.30;;;;;;;12.55;28.52;99253.28;5093545;28;20305;-63
2022/01/31 10:16:30;;;;;;;5.47;3.00;;;;;;;12.16;28.85;99253.50;5093425;28;20181;-63
2022/01/31 10:19:06;;;;;;;8.77;2.87;;;;;;;12.55;28.55;99239.16;5093332;28;20577;-62
2022/01/31 10:21:33;;;;;;;6.80;2.37;;;;;;;12.81;28.05;99234.44;5093685;28;20560;-62
2022/01/31 10:24:00;;;;;;;13.17;3.27;;;;;;;12.75;28.11;99230.00;5093423;28;20248;-62
2022/01/31 10:26:28;;;;;;;3.63;2.13;;;;;;;12.75;27.68;99224.66;5093361;28;20257;-63
2022/01/31 10:29:09;;;;;;;9.33;2.90;;;;;;;12.82;27.57;99217.41;5092986;28;20207;-63
2022/01/31 10:31:37;;;;;;;6.23;2.80;;;;;;;13.03;27.46;99214.41;5092822;28;20635;-63
2022/01/31 10:34:14;;;;;;;4.43;2.97;;;;;;;12.85;27.27;99219.66;5093062;28;20255;-64
2022/01/31 10:36:40;;;;;;;7.60;2.60;;;;;;;12.98;27.20;99211.56;5093105;28;20195;-63
2022/01/31 10:39:13;;;;;;;2.57;2.33;;;;;;;13.12;26.87;99205.13;5092764;28;20195;-62
2022/01/31 10:53:08;;;;;;;8.43;3.00;;;;;;;12.70;26.58;99157.84;5092725;28;20666;-63
2022/01/31 10:55:34;;;;;;;5.63;2.40;;;;;;;12.47;26.89;99147.00;5092606;28;20195;-63
2022/01/31 10:58:07;;;;;;;13.37;3.50;;;;;;;12.47;26.43;99141.66;5092693;28;20195;-62
2022/01/31 11:00:34;;;;;;;5.43;2.63;;;;;;;12.49;26.52;99136.13;5092150;28;20728;-63
2022/01/31 11:03:26;;;;;;;13.17;3.83;;;;;;;12.33;28.69;99137.44;5092051;28;20195;-62
2022/01/31 11:05:52;;;;;;;6.80;2.70;;;;;;;12.42;27.60;99128.16;5092668;28;20750;-61
2022/01/31 11:08:19;;;;;;;3.53;3.17;;;;;;;12.44;27.02;99118.13;5092032;28;20194;-61
2022/01/31 11:10:47;;;;;;;9.00;4.60;;;;;;;12.38;27.19;99113.66;5091801;28;20686;-62
2022/01/31 11:13:16;;;;;;;3.40;2.47;;;;;;;12.43;26.91;99115.66;5092324;28;20263;-65
2022/01/31 11:15:43;;;;;;;9.60;2.40;;;;;;;12.10;27.06;99107.91;5092837;28;20195;-65
2022/01/31 11:18:13;;;;;;;3.63;2.43;;;;;;;11.95;27.51;99110.06;5092181;28;20270;-64
2022/01/31 11:20:43;;;;;;;7.03;2.53;;;;;;;11.76;27.87;99097.66;5091973;28;20735;-64
2022/01/31 11:23:10;;;;;;;5.57;3.17;;;;;;;11.96;27.12;99073.63;5092522;28;20189;-63
2022/01/31 11:25:42;;;;;;;7.30;2.87;;;;;;;12.20;27.66;99065.66;5092028;28;20194;-65
2022/01/31 11:28:11;;;;;;;10.70;3.27;;;;;;;12.37;27.26;99072.06;5091905;28;20326;-66
2022/01/31 11:30:41;;;;;;;5.03;2.30;;;;;;;12.48;27.31;99060.72;5092129;28;20198;-66
2022/01/31 11:33:08;;;;;;;7.43;2.93;;;;;;;12.67;26.64;99062.38;5091673;28;20545;-67
2022/01/31 11:35:36;;;;;;;5.70;2.60;;;;;;;12.28;26.81;99060.06;5093242;28;20224;-69
2022/01/31 11:38:03;;;;;;;5.90;3.60;;;;;;;12.16;27.02;99051.13;5092222;28;20244;-68
2022/01/31 11:40:31;;;;;;;4.57;2.83;;;;;;;12.33;26.79;99043.44;5092237;28;20190;-68
2022/01/31 11:42:58;;;;;;;3.47;2.53;;;;;;;12.19;26.65;99042.72;5091837;28;20190;-69
2022/01/31 11:45:28;;;;;;;8.37;3.30;;;;;;;12.29;26.90;99043.03;5091454;28;20665;-67
2022/01/31 11:47:58;;;;;;;21.53;4.07;;;;;;;12.28;26.87;99035.25;5091561;28;20243;-68
2022/01/31 11:50:26;;;;;;;15.37;3.40;;;;;;;12.27;26.90;99034.47;5091566;28;20199;-68
2022/01/31 11:52:56;;;;;;;4.67;3.57;;;;;;;12.33;26.92;99028.25;5091555;28;20223;-67
2022/01/31 11:55:25;;;;;;;2.90;2.40;;;;;;;12.46;26.72;99022.81;5091535;28;20666;-68